createdAt,value
2022-10-05T00:00:00.072Z,13.65
2022-10-05T00:05:02.846Z,13.70
2022-10-05T00:10:11.949Z,13.80
2022-10-05T00:15:15.946Z,12.15
2022-10-05T00:20:23.910Z,12.77
2022-10-05T00:25:26.371Z,11.10
2022-10-05T00:30:33.126Z,11.63
2022-10-05T00:35:40.306Z,12.85
2022-10-05T00:41:11.039Z,13.07
2022-10-05T00:46:27.367Z,15.48
2022-10-05T00:51:32.394Z,14.15
2022-10-05T00:57:03.271Z,12.65
2022-10-05T01:02:37.056Z,14.30
2022-10-05T01:07:49.586Z,14.98
2022-10-05T01:12:51.732Z,12.82
2022-10-05T01:17:59.260Z,13.00
2022-10-05T01:23:22.937Z,15.15
2022-10-05T01:28:30.974Z,12.00
2022-10-05T01:33:52.903Z,9.90
2022-10-05T01:39:10.736Z,17.05
2022-10-05T01:44:18.193Z,13.90
2022-10-05T01:49:54.778Z,14.13
2022-10-05T01:55:15.188Z,14.25
2022-10-05T02:00:18.775Z,13.13
2022-10-05T02:05:26.749Z,11.10
2022-10-05T02:10:31.816Z,12.98
2022-10-05T02:15:46.931Z,12.25
2022-10-05T02:20:50.102Z,11.48
2022-10-05T02:25:53.144Z,11.88
2022-10-05T02:31:01.695Z,12.52
2022-10-05T02:36:14.390Z,12.73
2022-10-05T02:41:32.005Z,11.18
2022-10-05T02:46:36.798Z,10.65
2022-10-05T02:51:51.398Z,10.23
2022-10-05T02:57:28.460Z,11.35
2022-10-05T03:02:38.456Z,11.27
2022-10-05T03:08:09.967Z,18.83
2022-10-05T03:13:37.702Z,12.25
2022-10-05T03:18:57.650Z,10.30
2022-10-05T03:24:10.159Z,10.75
2022-10-05T03:29:18.988Z,9.43
2022-10-05T03:34:33.257Z,12.57
2022-10-05T03:39:40.042Z,13.00
2022-10-05T03:45:24.122Z,12.50
2022-10-05T03:50:32.961Z,11.90
2022-10-05T03:56:07.827Z,12.23
2022-10-05T04:01:13.248Z,11.32
2022-10-05T04:06:22.791Z,11.65
2022-10-05T04:11:34.992Z,10.18
2022-10-05T04:16:44.563Z,14.05
2022-10-05T04:22:11.115Z,21.30
2022-10-05T04:27:15.894Z,17.42
2022-10-05T04:32:39.222Z,14.88
2022-10-05T04:38:21.171Z,15.40
2022-10-05T04:44:01.455Z,13.27
2022-10-05T04:49:32.705Z,11.95
2022-10-05T04:55:04.801Z,11.00
2022-10-05T05:00:21.456Z,12.95
2022-10-05T05:06:11.986Z,12.52
2022-10-05T05:11:29.445Z,12.25
2022-10-05T05:16:45.012Z,13.10
2022-10-05T05:22:03.020Z,11.48
2022-10-05T05:27:24.906Z,11.60
2022-10-05T05:32:49.123Z,12.50
2022-10-05T05:38:01.078Z,20.85
2022-10-05T05:43:16.417Z,28.02
2022-10-05T05:48:32.814Z,21.35
2022-10-05T05:53:42.156Z,19.10
2022-10-05T05:59:02.538Z,10.43
2022-10-05T06:04:11.892Z,14.55
2022-10-05T06:09:35.769Z,13.13
2022-10-05T06:15:11.478Z,13.13
2022-10-05T06:20:40.322Z,17.35
2022-10-05T06:25:53.257Z,14.55
2022-10-05T06:31:29.747Z,11.73
2022-10-05T06:36:42.466Z,11.82
2022-10-05T06:42:05.551Z,11.43
2022-10-05T06:47:55.184Z,11.32
2022-10-05T06:53:29.479Z,11.95
2022-10-05T06:58:43.376Z,12.65
2022-10-05T07:03:54.377Z,12.73
2022-10-05T07:09:56.556Z,11.85
2022-10-05T07:15:19.842Z,9.70
2022-10-05T07:20:49.042Z,9.35
2022-10-05T07:26:06.466Z,10.05
2022-10-05T07:31:14.206Z,11.30
2022-10-05T07:36:53.694Z,12.75
2022-10-05T07:42:19.033Z,8.65
2022-10-05T07:47:30.929Z,9.73
2022-10-05T07:52:41.754Z,9.55
2022-10-05T07:58:02.043Z,11.85
2022-10-05T08:03:14.479Z,8.15
2022-10-05T08:08:35.344Z,7.75
2022-10-05T08:13:56.465Z,6.90
2022-10-05T08:19:23.430Z,6.90
2022-10-05T08:24:38.887Z,5.20
2022-10-05T08:29:51.199Z,6.25
2022-10-05T08:35:28.068Z,7.07
2022-10-05T08:40:42.920Z,5.43
2022-10-05T08:46:22.747Z,10.43
2022-10-05T08:51:56.111Z,6.15
2022-10-05T08:57:26.719Z,6.10
2022-10-05T09:03:41.841Z,7.35
2022-10-05T09:09:35.799Z,6.60
2022-10-05T09:15:24.432Z,4.95
2022-10-05T09:21:03.930Z,5.20
2022-10-05T09:26:09.355Z,5.70
2022-10-05T09:31:35.993Z,4.88
2022-10-05T09:37:15.681Z,5.95
2022-10-05T09:42:36.563Z,5.28
2022-10-05T09:48:25.728Z,6.38
2022-10-05T09:54:03.373Z,5.55
2022-10-05T10:12:01.163Z,6.45
2022-10-05T10:17:16.330Z,6.03
2022-10-05T10:22:40.915Z,4.28
2022-10-05T10:28:39.271Z,5.32
2022-10-05T10:34:48.363Z,4.05
2022-10-05T10:40:37.186Z,5.35
2022-10-05T10:46:13.230Z,3.83
2022-10-05T10:51:40.084Z,3.15
2022-10-05T10:57:12.185Z,4.07
2022-10-05T11:16:02.154Z,29.35
2022-10-05T11:29:11.970Z,19.85
2022-10-05T11:41:19.027Z,25.55
2022-10-05T11:46:46.760Z,37.10
2022-10-05T11:52:06.586Z,25.98
2022-10-05T11:57:27.658Z,10.95
2022-10-05T12:09:16.834Z,11.80
2022-10-05T12:15:03.254Z,11.93
2022-10-05T12:20:35.587Z,12.35
2022-10-05T12:27:02.148Z,12.05
2022-10-05T12:32:12.057Z,45.67
2022-10-05T12:37:39.782Z,29.98
2022-10-05T12:43:40.096Z,34.38
2022-10-05T12:48:53.433Z,21.50
2022-10-05T12:54:19.137Z,21.67
2022-10-05T12:59:42.585Z,25.85
2022-10-05T13:05:12.247Z,22.90
2022-10-05T13:10:41.061Z,25.17
2022-10-05T13:16:08.383Z,26.60
2022-10-05T13:21:19.564Z,37.03
2022-10-05T13:26:43.970Z,47.08
2022-10-05T13:31:49.370Z,36.72
2022-10-05T13:37:06.961Z,16.25
2022-10-05T13:42:20.146Z,8.80
2022-10-05T13:47:39.045Z,8.25
2022-10-05T13:52:48.158Z,8.40
2022-10-05T13:58:03.896Z,12.65
2022-10-05T14:03:33.905Z,13.02
2022-10-05T14:08:52.629Z,20.38
2022-10-05T14:14:14.882Z,18.88
2022-10-05T14:19:27.186Z,17.10
2022-10-05T14:24:44.830Z,13.73
2022-10-05T14:30:18.226Z,12.57
2022-10-05T14:35:22.262Z,14.13
2022-10-05T14:40:28.780Z,10.95
2022-10-05T14:45:36.638Z,8.98
2022-10-05T14:51:28.641Z,26.25
2022-10-05T14:56:40.448Z,56.03
2022-10-05T15:02:18.233Z,70.53
2022-10-05T15:07:20.423Z,48.58
2022-10-05T15:18:49.278Z,36.33
2022-10-05T15:29:26.224Z,14.70
2022-10-05T15:35:04.049Z,13.18
2022-10-05T15:40:20.576Z,12.35
2022-10-05T15:45:42.410Z,12.68
2022-10-05T15:51:00.778Z,12.65
2022-10-05T15:56:19.197Z,11.73
2022-10-05T16:01:42.590Z,23.77
2022-10-05T16:07:16.728Z,25.02
2022-10-05T16:12:35.431Z,20.95
2022-10-05T16:18:07.498Z,16.65
2022-10-05T16:23:37.496Z,13.75
2022-10-05T16:28:55.974Z,26.35
2022-10-05T16:34:18.265Z,43.15
2022-10-05T16:39:45.066Z,28.67
2022-10-05T16:45:08.464Z,25.35
2022-10-05T16:50:24.103Z,31.80
2022-10-05T16:55:37.886Z,38.50
2022-10-05T17:01:39.781Z,37.83
2022-10-05T17:07:17.189Z,32.10
2022-10-05T17:12:32.555Z,22.58
2022-10-05T17:17:49.204Z,33.33
2022-10-05T17:22:53.320Z,33.72
2022-10-05T17:28:33.211Z,23.90
2022-10-05T17:34:10.740Z,16.58
2022-10-05T17:39:24.162Z,11.15
2022-10-05T17:44:26.559Z,10.65
2022-10-05T17:49:38.074Z,10.40
2022-10-05T17:55:13.870Z,12.38
2022-10-05T18:00:42.170Z,11.43
2022-10-05T18:05:46.920Z,19.55
2022-10-05T18:11:12.811Z,22.60
2022-10-05T18:16:53.588Z,21.75
2022-10-05T18:22:15.576Z,19.45
2022-10-05T18:27:34.323Z,19.98
2022-10-05T18:32:58.000Z,21.95
2022-10-05T18:43:31.072Z,19.65
2022-10-05T18:48:58.311Z,20.10
2022-10-05T18:54:28.662Z,22.65
2022-10-05T18:59:42.120Z,18.90
2022-10-05T19:05:03.933Z,16.92
2022-10-05T19:10:23.411Z,19.42
2022-10-05T19:16:08.464Z,16.73
2022-10-05T19:21:29.472Z,24.27
2022-10-05T19:27:10.022Z,17.17
2022-10-05T19:32:21.256Z,30.48
2022-10-05T19:37:51.567Z,37.42
2022-10-05T19:43:05.474Z,38.65
2022-10-05T19:48:32.659Z,56.83
2022-10-05T19:53:39.302Z,50.38
2022-10-05T19:59:07.627Z,42.13
2022-10-05T20:05:23.772Z,58.70
2022-10-05T20:23:32.473Z,43.70
2022-10-05T20:28:44.574Z,35.17
2022-10-05T20:33:47.713Z,31.40
2022-10-05T20:38:50.105Z,22.85
2022-10-05T20:43:52.330Z,19.23
2022-10-05T20:48:54.987Z,30.10
2022-10-05T20:53:58.675Z,26.52
2022-10-05T20:59:25.545Z,20.67
2022-10-05T21:04:40.248Z,18.77
2022-10-05T21:10:18.829Z,21.40
2022-10-05T21:15:23.387Z,18.50
2022-10-05T21:20:31.211Z,16.90
2022-10-05T21:25:40.198Z,15.18
2022-10-05T21:30:43.096Z,15.57
2022-10-05T21:35:46.249Z,15.73
2022-10-05T21:40:52.199Z,15.82
2022-10-05T21:46:01.095Z,15.00
2022-10-05T21:51:04.761Z,16.40
2022-10-05T21:56:11.093Z,12.25
2022-10-05T22:01:13.568Z,18.08
2022-10-05T22:06:37.316Z,10.97
2022-10-05T22:16:43.709Z,9.52
2022-10-05T22:21:48.740Z,8.77
2022-10-05T22:26:51.713Z,11.63
2022-10-05T22:31:55.992Z,11.48
2022-10-05T22:36:58.505Z,8.77
2022-10-05T22:42:01.376Z,6.73
2022-10-05T22:47:24.098Z,5.72
2022-10-05T22:52:27.336Z,6.00
2022-10-05T22:57:40.302Z,5.07
2022-10-05T23:02:43.647Z,3.97
2022-10-05T23:13:00.832Z,5.63
2022-10-05T23:18:03.619Z,7.18
2022-10-05T23:23:05.977Z,5.80
2022-10-05T23:33:11.350Z,4.03
2022-10-05T23:38:13.646Z,4.60
2022-10-05T23:43:15.929Z,4.88
2022-10-05T23:48:18.191Z,3.85
2022-10-05T23:53:21.786Z,4.25
2022-10-05T23:58:24.692Z,6.85
